Time;durP1;ratioP1;P1;durP2;ratioP2;P2;SDS_P1;SDS_P2;PMS_P1;PMS_P2;Temp;Humidity;BMP_temperature;BMP_pressure;BME280_temperature;BME280_humidity;BME280_pressure;Samples;Min_cycle;Max_cycle;Signal;HPM_P1;HPM_P2
2021/08/06 00:00:06;;;;;;;1.95;1.63;;;17.70;81.50;;;17.73;63.86;96805.13;4890821;29;20503;-36
2021/08/06 00:02:35;;;;;;;1.52;1.25;;;17.70;81.40;;;17.73;64.04;96804.31;4893546;29;20070;-36
2021/08/06 00:05:05;;;;;;;1.27;1.17;;;17.70;81.30;;;17.74;63.78;96804.09;4890165;29;20049;-36
2021/08/06 00:07:33;;;;;;;1.30;1.10;;;17.70;81.20;;;17.75;63.82;96797.66;4891711;29;20060;-36
2021/08/06 00:10:01;;;;;;;2.17;1.10;;;17.70;81.00;;;17.74;63.72;96797.88;4890755;29;20061;-36
2021/08/06 00:12:29;;;;;;;2.75;1.20;;;17.70;80.80;;;17.74;63.80;96805.94;4892460;29;20265;-37
2021/08/06 00:14:57;;;;;;;2.58;1.20;;;17.70;80.70;;;17.69;63.94;96803.94;4892189;29;20048;-36
2021/08/06 00:17:24;;;;;;;1.00;0.90;;;17.70;81.00;;;17.67;64.11;96803.34;4891057;29;20129;-37
2021/08/06 00:19:52;;;;;;;1.20;0.90;;;17.60;81.30;;;17.63;64.26;96804.84;4890615;29;20052;-37
2021/08/06 00:22:20;;;;;;;5.43;1.70;;;17.60;81.80;;;17.61;64.38;96799.69;4890321;29;20062;-36
2021/08/06 00:24:48;;;;;;;1.48;1.00;;;17.50;82.00;;;17.58;64.19;96804.69;4890800;29;20052;-36
2021/08/06 00:27:15;;;;;;;1.70;1.15;;;17.50;82.10;;;17.59;64.37;96796.41;4891245;29;20062;-36
2021/08/06 00:29:43;;;;;;;1.90;1.17;;;17.50;82.00;;;17.61;64.27;96801.56;4891107;29;20056;-36
2021/08/06 00:32:11;;;;;;;2.13;1.00;;;17.50;81.80;;;17.58;64.37;96794.75;4891260;29;20363;-36
2021/08/06 00:34:39;;;;;;;1.52;1.10;;;17.50;81.80;;;17.54;64.49;96792.75;4889158;29;20378;-36
2021/08/06 00:37:09;;;;;;;1.35;1.00;;;17.50;81.90;;;17.47;64.51;96799.03;4891249;29;20064;-36
2021/08/06 00:39:41;;;;;;;1.17;1.00;;;17.40;82.30;;;17.46;64.57;96785.81;4889420;29;20070;-36
2021/08/06 00:42:10;;;;;;;2.33;1.17;;;17.50;82.20;;;17.45;64.50;96776.94;4890147;29;20521;-37
2021/08/06 00:44:39;;;;;;;1.33;1.08;;;17.50;81.90;;;17.47;64.69;96785.59;4887745;29;20355;-36
2021/08/06 00:47:10;;;;;;;1.83;1.20;;;17.50;82.00;;;17.49;64.43;96775.41;4888317;29;20061;-36
2021/08/06 00:49:41;;;;;;;1.83;1.40;;;17.50;81.80;;;17.48;64.36;96784.53;4874915;29;20058;-36
2021/08/06 00:52:14;;;;;;;2.03;1.10;;;17.40;81.90;;;17.43;64.40;96776.34;4889275;29;20125;-37
2021/08/06 00:54:46;;;;;;;1.20;1.00;;;17.40;82.20;;;17.42;64.43;96773.84;4888510;29;20447;-36
2021/08/06 00:57:17;;;;;;;1.70;1.00;;;17.30;82.50;;;17.39;64.71;96774.28;4873744;29;20377;-36
2021/08/06 00:59:53;;;;;;;2.47;1.65;;;17.30;82.70;;;17.32;64.84;96769.81;4889660;29;20384;-36
2021/08/06 01:02:39;;;;;;;2.63;1.00;;;17.30;82.80;;;17.29;64.89;96772.97;4889809;29;20114;-36
2021/08/06 01:05:11;;;;;;;1.10;1.00;;;17.20;83.00;;;17.31;64.67;96775.44;4873231;29;20065;-36
2021/08/06 01:07:47;;;;;;;1.77;1.27;;;17.30;82.70;;;17.34;64.79;96772.28;4888438;29;20265;-36
2021/08/06 01:10:20;;;;;;;1.65;1.10;;;17.30;82.70;;;17.35;64.56;96773.94;4888153;29;20283;-36
2021/08/06 01:12:58;;;;;;;1.45;1.02;;;17.30;82.70;;;17.34;64.96;96774.16;4888367;29;20053;-36
2021/08/06 01:15:31;;;;;;;1.25;1.00;;;17.20;82.80;;;17.29;64.85;96778.38;4873664;29;20062;-36
2021/08/06 01:18:06;;;;;;;1.58;1.20;;;17.20;83.20;;;17.31;64.71;96775.44;4871529;29;20075;-36
2021/08/06 01:20:42;;;;;;;;;;;17.20;83.10;;;17.28;64.77;96775.91;4875159;29;20056;-36
2021/08/06 01:23:33;;;;;;;1.50;1.10;;;17.20;83.60;;;17.28;65.11;96775.91;4887281;29;19934;-36
2021/08/06 01:26:37;;;;;;;2.60;1.20;;;17.10;83.60;;;17.23;65.03;96773.84;4874379;29;20067;-36
2021/08/06 01:29:10;;;;;;;1.23;1.13;;;17.00;83.90;;;17.22;64.86;96777.59;4836509;29;20294;-36
2021/08/06 01:31:45;;;;;;;1.50;1.15;;;17.00;83.70;;;17.23;64.75;96768.47;4850158;29;20065;-36
2021/08/06 01:34:20;;;;;;;1.48;1.23;;;17.10;83.80;;;17.24;64.81;96764.75;4851720;29;20061;-36
2021/08/06 01:36:49;;;;;;;1.63;1.40;;;17.00;83.60;;;17.22;64.76;96774.91;4852876;29;20061;-36
2021/08/06 01:39:33;;;;;;;1.58;1.30;;;17.00;83.70;;;17.16;64.87;96772.28;4851507;29;20060;-36
2021/08/06 01:42:17;;;;;;;1.40;1.30;;;16.90;84.20;;;17.08;65.19;96771.56;4851100;29;20413;-36
2021/08/06 01:44:54;;;;;;;2.85;1.50;;;16.90;84.70;;;17.06;65.30;96764.75;4850486;29;20072;-36
2021/08/06 01:47:46;;;;;;;3.40;1.33;;;16.90;84.90;;;17.06;65.35;96775.50;4852594;29;20041;-36
2021/08/06 01:50:33;;;;;;;1.58;1.20;;;16.80;85.00;;;16.99;65.66;96775.59;4851503;29;20064;-36
2021/08/06 01:53:12;;;;;;;1.52;1.33;;;16.80;85.60;;;17.03;65.74;96765.22;4865858;29;20343;-36
2021/08/06 01:55:58;;;;;;;1.50;1.40;;;16.90;85.40;;;17.06;65.63;96765.59;4851326;29;20352;-36
2021/08/06 01:58:40;;;;;;;1.45;1.20;;;16.90;85.10;;;17.10;65.69;96774.84;4863474;29;20061;-36
2021/08/06 02:01:13;;;;;;;1.58;1.13;;;17.00;84.80;;;17.12;65.81;96774.63;4850669;29;20053;-36
2021/08/06 02:03:49;;;;;;;1.52;1.33;;;17.00;84.80;;;17.16;65.72;96756.16;4864563;29;20063;-36
2021/08/06 02:06:29;;;;;;;2.20;1.10;;;17.10;84.70;;;17.18;65.42;96771.03;4851748;29;20429;-36
2021/08/06 02:09:02;;;;;;;1.48;1.20;;;17.10;84.70;;;17.19;65.84;96766.47;4867007;29;20065;-36
2021/08/06 02:11:35;;;;;;;3.50;1.42;;;17.10;84.80;;;17.24;65.49;96763.94;4850555;29;20061;-36
2021/08/06 02:14:07;;;;;;;2.92;1.80;;;17.20;84.50;;;17.24;65.78;96756.69;4850948;29;20066;-36
2021/08/06 02:16:43;;;;;;;1.10;1.00;;;17.30;84.00;;;17.31;65.49;96762.81;4851727;29;20378;-36
2021/08/06 02:19:15;;;;;;;;;;;17.30;83.80;;;17.28;65.43;96760.56;4865779;29;20058;-36
2021/08/06 02:21:46;;;;;;;2.83;1.40;;;17.30;83.90;;;17.32;65.58;96756.38;4868096;29;19928;-36
2021/08/06 02:24:22;;;;;;;2.25;1.40;;;17.30;83.80;;;17.35;65.42;96755.13;4863414;29;20061;-37
2021/08/06 02:26:53;;;;;;;2.05;1.35;;;17.30;83.70;;;17.42;65.33;96752.34;4851401;29;20280;-36
2021/08/06 02:29:28;;;;;;;3.63;1.60;;;17.40;83.50;;;17.44;65.12;96753.75;4865342;29;20136;-36
2021/08/06 02:32:00;;;;;;;2.83;1.45;;;17.40;83.30;;;17.44;65.14;96745.66;4850494;29;20273;-36
2021/08/06 02:34:29;;;;;;;2.45;1.40;;;17.40;82.90;;;17.45;64.99;96739.25;4852153;29;20080;-36
2021/08/06 02:36:59;;;;;;;1.95;1.48;;;17.40;83.10;;;17.48;64.74;96738.78;4851989;29;20049;-36
2021/08/06 02:39:29;;;;;;;2.42;1.20;;;17.40;82.90;;;17.47;64.64;96737.16;4851818;29;20053;-36
2021/08/06 02:42:00;;;;;;;2.95;1.50;;;17.50;82.20;;;17.45;64.47;96739.25;4852080;29;20063;-36
2021/08/06 02:44:29;;;;;;;1.52;1.15;;;17.50;82.10;;;17.49;64.50;96729.69;4855980;29;20064;-36
2021/08/06 02:46:56;;;;;;;3.40;1.30;;;17.50;81.70;;;17.52;64.24;96731.94;4854409;29;20750;-36
2021/08/06 02:49:26;;;;;;;3.47;1.50;;;17.60;81.30;;;17.56;64.19;96728.75;4870251;29;20056;-36
2021/08/06 02:51:54;;;;;;;1.60;1.20;;;17.50;81.40;;;17.58;63.95;96730.16;4854258;29;20053;-37
2021/08/06 02:54:23;;;;;;;3.47;1.58;;;17.60;81.00;;;17.60;63.77;96727.25;4852549;29;20061;-36
2021/08/06 02:56:51;;;;;;;1.88;1.42;;;17.60;80.60;;;17.61;63.64;96728.91;4853391;29;20065;-36
2021/08/06 02:59:19;;;;;;;1.98;1.38;;;17.60;80.70;;;17.59;63.62;96722.94;4855911;29;20262;-36
2021/08/06 03:01:48;;;;;;;2.05;1.23;;;17.50;80.80;;;17.59;63.41;96721.06;4854288;29;20062;-36
2021/08/06 03:04:16;;;;;;;4.20;1.48;;;17.50;80.70;;;17.62;63.39;96720.63;4853447;29;20064;-36
2021/08/06 03:06:45;;;;;;;4.80;1.40;;;17.60;80.60;;;17.63;63.28;96729.50;4854292;29;20355;-36
2021/08/06 03:09:16;;;;;;;2.72;1.40;;;17.60;80.30;;;17.63;63.33;96730.31;4853889;29;20049;-36
2021/08/06 03:11:45;;;;;;;2.03;1.50;;;17.60;80.00;;;17.59;63.10;96722.94;4855382;29;20076;-36
2021/08/06 03:14:14;;;;;;;1.33;1.17;;;17.50;80.20;;;17.61;63.19;96710.88;4869342;29;20411;-36
2021/08/06 03:16:43;;;;;;;1.90;1.50;;;17.60;80.00;;;17.62;63.08;96715.22;4854336;29;20062;-36
2021/08/06 03:19:11;;;;;;;1.30;1.17;;;17.60;79.70;;;17.66;63.13;96718.25;4853367;29;20061;-36
2021/08/06 03:21:39;;;;;;;2.47;1.40;;;17.60;79.70;;;17.62;63.10;96715.22;4854240;29;20065;-36
2021/08/06 03:24:07;;;;;;;2.03;1.58;;;17.60;79.60;;;17.58;63.06;96722.09;4867665;29;20061;-36
2021/08/06 03:26:37;;;;;;;2.42;1.17;;;17.50;79.50;;;17.59;63.04;96720.25;4854605;29;20051;-36
2021/08/06 03:29:05;;;;;;;2.63;1.55;;;17.50;79.90;;;17.60;62.96;96714.66;4854271;29;20072;-36
2021/08/06 03:31:33;;;;;;;1.55;1.40;;;17.60;79.70;;;17.58;62.97;96715.91;4852679;29;20533;-36
2021/08/06 03:34:02;;;;;;;1.88;1.20;;;17.50;79.50;;;17.57;62.82;96714.28;4851385;29;20057;-36
2021/08/06 03:36:30;;;;;;;3.72;1.48;;;17.60;79.50;;;17.61;62.83;96718.97;4853687;29;20069;-43
2021/08/06 03:38:58;;;;;;;2.67;1.42;;;17.50;79.30;;;17.63;62.65;96711.47;4854857;29;20217;-36
2021/08/06 03:41:26;;;;;;;2.45;1.42;;;17.60;79.40;;;17.66;62.50;96712.88;4853441;29;20371;-36
2021/08/06 03:43:58;;;;;;;2.17;1.63;;;17.60;79.00;;;17.69;62.48;96717.81;4854542;29;20229;-36
2021/08/06 03:46:27;;;;;;;2.63;1.50;;;17.60;79.00;;;17.71;62.49;96711.16;4852797;29;20247;-36
2021/08/06 03:48:55;;;;;;;1.77;1.38;;;17.70;78.80;;;17.75;62.35;96711.50;4851828;29;20057;-36
2021/08/06 03:51:24;;;;;;;1.85;1.30;;;17.80;78.60;;;17.74;62.14;96709.88;4852869;29;20067;-36
2021/08/06 03:53:53;;;;;;;1.60;1.35;;;17.70;78.00;;;17.75;62.13;96705.31;4854427;29;20519;-36
2021/08/06 03:56:20;;;;;;;2.88;1.38;;;17.80;78.20;;;17.79;62.00;96703.81;4855692;29;20061;-36
2021/08/06 03:58:51;;;;;;;3.17;1.27;;;17.70;78.00;;;17.80;61.81;96700.88;4852348;29;20065;-36
2021/08/06 04:01:19;;;;;;;3.80;1.40;;;17.70;78.00;;;17.81;61.78;96705.19;4853492;29;20060;-36
2021/08/06 04:03:47;;;;;;;1.60;1.23;;;17.80;77.60;;;17.81;61.60;96699.00;4852741;29;20053;-36
2021/08/06 04:06:15;;;;;;;3.58;1.67;;;17.90;77.40;;;17.81;61.73;96699.00;4851726;29;20057;-36
2021/08/06 04:08:43;;;;;;;1.83;1.30;;;17.90;77.30;;;17.79;61.84;96695.72;4852540;29;20088;-36
2021/08/06 04:11:11;;;;;;;6.30;1.58;;;17.90;77.20;;;17.77;61.79;96698.63;4852135;29;20259;-36
2021/08/06 04:13:39;;;;;;;2.28;1.60;;;17.90;77.30;;;17.76;61.75;96704.25;4851942;29;20065;-36
2021/08/06 04:16:07;;;;;;;2.00;1.40;;;17.90;77.30;;;17.76;61.93;96705.09;4854635;29;20057;-36
2021/08/06 04:18:35;;;;;;;2.53;1.70;;;17.90;77.60;;;17.76;61.88;96705.09;4852012;29;20053;-36
2021/08/06 04:21:03;;;;;;;3.60;1.70;;;17.80;77.80;;;17.74;61.98;96707.19;4853919;29;20171;-36
2021/08/06 04:23:31;;;;;;;2.13;1.48;;;17.80;78.00;;;17.74;61.94;96709.88;4852832;29;20076;-36
2021/08/06 04:25:59;;;;;;;2.20;1.25;;;17.70;78.10;;;17.73;62.04;96710.91;4854098;29;20058;-36
2021/08/06 04:28:27;;;;;;;2.20;1.60;;;17.70;78.30;;;17.65;62.26;96722.03;4854184;29;20060;-36
2021/08/06 04:31:00;;;;;;;4.72;1.48;;;17.70;78.80;;;17.65;62.85;96714.75;4853366;29;20065;-36
2021/08/06 04:33:28;;;;;;;3.78;2.42;;;17.60;79.70;;;17.51;63.25;96708.75;4851707;29;20083;-36
2021/08/06 04:35:56;;;;;;;1.42;1.30;;;17.50;80.20;;;17.52;63.40;96713.09;4853599;29;20259;-36
2021/08/06 04:38:25;;;;;;;1.63;1.30;;;17.50;80.70;;;17.51;63.39;96722.19;4852818;29;20088;-36
2021/08/06 04:40:53;;;;;;;3.03;1.63;;;17.50;80.70;;;17.48;63.66;96727.22;4850992;29;20065;-36
2021/08/06 04:43:22;;;;;;;2.97;1.70;;;17.40;81.20;;;17.46;63.60;96729.31;4851390;29;20063;-36
2021/08/06 04:45:51;;;;;;;3.45;1.75;;;17.40;81.20;;;17.43;63.88;96727.09;4854832;29;20061;-36
2021/08/06 04:48:21;;;;;;;2.17;1.48;;;17.40;81.90;;;17.42;64.18;96730.81;4852447;29;20248;-36
2021/08/06 04:50:50;;;;;;;2.83;1.63;;;17.30;82.30;;;17.39;64.48;96721.34;4852520;29;20209;-36
2021/08/06 04:53:18;;;;;;;2.53;1.45;;;17.20;83.40;;;17.40;64.51;96727.53;4851526;29;20049;-36
2021/08/06 04:55:46;;;;;;;3.85;1.70;;;17.20;83.80;;;17.37;64.82;96728.81;4854950;29;20359;-37
2021/08/06 04:58:13;;;;;;;3.45;1.60;;;17.10;84.40;;;17.33;65.03;96727.59;4853336;29;20057;-36
2021/08/06 05:00:42;;;;;;;2.17;1.80;;;17.10;85.40;;;17.30;65.05;96718.13;4852655;29;20072;-36
2021/08/06 05:03:15;;;;;;;2.60;1.63;;;17.10;85.40;;;17.34;65.40;96729.25;4852387;29;20390;-36
2021/08/06 05:05:49;;;;;;;3.60;1.70;;;17.10;85.90;;;17.29;65.57;96731.78;4849735;29;20061;-36
2021/08/06 05:08:17;;;;;;;2.92;1.73;;;17.00;86.00;;;17.28;65.70;96733.66;4852138;29;20072;-36
2021/08/06 05:10:45;;;;;;;2.70;1.60;;;17.10;86.30;;;17.27;65.96;96731.19;4850162;29;20135;-36
2021/08/06 05:13:13;;;;;;;2.80;1.60;;;17.00;86.80;;;17.22;66.13;96734.56;4852634;29;20339;-37
2021/08/06 05:15:43;;;;;;;2.67;1.95;;;17.00;86.60;;;17.22;66.61;96741.84;4851446;29;20068;-36
2021/08/06 05:18:11;;;;;;;3.05;1.77;;;17.00;86.90;;;17.21;66.47;96734.78;4851724;29;20053;-36
2021/08/06 05:20:40;;;;;;;2.50;1.73;;;17.00;87.30;;;17.20;66.72;96738.53;4854728;29;20064;-36
2021/08/06 05:23:09;;;;;;;3.13;1.73;;;17.00;87.80;;;17.15;66.76;96741.91;4852233;29;20339;-36
2021/08/06 05:25:37;;;;;;;2.30;1.70;;;16.90;88.50;;;17.14;66.92;96742.97;4851290;29;20068;-36
2021/08/06 05:28:07;;;;;;;2.58;1.80;;;16.90;88.30;;;17.16;67.01;96732.78;4866983;29;20295;-36
2021/08/06 05:30:37;;;;;;;3.05;2.28;;;17.00;88.40;;;17.11;67.35;96738.00;4851037;29;20061;-36
2021/08/06 05:33:06;;;;;;;3.92;2.15;;;16.90;89.30;;;17.11;67.31;96733.44;4851335;29;20053;-36
2021/08/06 05:35:34;;;;;;;4.20;1.70;;;16.90;89.10;;;17.13;67.58;96739.41;4851719;29;20248;-36
2021/08/06 05:38:03;;;;;;;1.85;1.60;;;17.00;89.00;;;17.10;67.99;96728.31;4851462;29;20127;-36
2021/08/06 05:40:33;;;;;;;1.95;1.75;;;16.90;89.90;;;17.13;67.98;96719.78;4853160;29;20069;-36
2021/08/06 05:43:03;;;;;;;3.45;2.10;;;16.90;90.10;;;17.09;68.17;96727.47;4851703;29;20057;-36
2021/08/06 05:45:32;;;;;;;2.35;2.00;;;16.90;90.70;;;17.09;68.38;96721.28;4852485;29;20061;-36
2021/08/06 05:48:00;;;;;;;5.82;3.00;;;16.90;91.10;;;17.08;68.41;96728.53;4850958;29;20265;-36
2021/08/06 05:50:40;;;;;;;3.85;2.10;;;16.80;91.20;;;17.09;68.60;96723.97;4850559;29;20356;-36
2021/08/06 05:53:13;;;;;;;4.40;2.30;;;16.90;91.90;;;17.11;68.41;96725.38;4851264;29;20057;-36
2021/08/06 05:55:46;;;;;;;2.58;1.40;;;16.90;91.50;;;17.10;68.87;96722.94;4851494;29;20072;-36
2021/08/06 05:58:15;;;;;;;3.42;1.85;;;16.90;91.50;;;17.16;68.64;96727.41;4852813;29;20062;-36
2021/08/06 06:00:43;;;;;;;2.38;1.52;;;17.00;91.30;;;17.19;68.94;96721.56;4851023;29;20061;-36
2021/08/06 06:03:36;;;;;;;2.22;1.60;;;17.00;91.20;;;17.21;68.74;96732.91;4851674;29;20068;-36
2021/08/06 06:06:17;;;;;;;2.55;1.80;;;17.10;91.30;;;17.23;68.64;96736.19;4850039;29;20065;-36
2021/08/06 06:08:44;;;;;;;2.72;1.75;;;17.10;90.50;;;17.25;68.60;96744.06;4853130;29;20566;-36
2021/08/06 06:11:12;;;;;;;3.20;1.90;;;17.10;91.30;;;17.25;68.56;96747.59;4851881;29;20049;-36
2021/08/06 06:13:42;;;;;;;2.28;1.60;;;17.10;90.70;;;17.23;68.72;96740.78;4851582;29;20053;-36
2021/08/06 06:16:10;;;;;;;2.50;1.58;;;17.00;90.80;;;17.23;68.68;96748.84;4853079;29;20054;-36
2021/08/06 06:18:38;;;;;;;2.88;1.80;;;17.10;91.10;;;17.23;68.90;96751.53;4852615;29;20053;-36
2021/08/06 06:21:07;;;;;;;3.03;1.40;;;17.00;91.50;;;17.27;68.83;96752.72;4855402;29;20243;-36
2021/08/06 06:23:37;;;;;;;2.75;1.60;;;17.20;91.20;;;17.31;69.08;96746.69;4854255;29;20351;-36
2021/08/06 06:26:07;;;;;;;2.40;1.58;;;17.20;91.20;;;17.28;69.36;96752.50;4853135;29;20061;-36
2021/08/06 06:28:35;;;;;;;1.88;1.40;;;17.20;92.10;;;17.28;69.35;96749.81;4855436;29;20053;-36
2021/08/06 06:31:05;;;;;;;3.88;1.58;;;17.20;91.80;;;17.28;69.38;96747.13;4856217;29;20256;-36
2021/08/06 06:33:33;;;;;;;2.47;1.60;;;17.20;91.80;;;17.30;69.20;96744.22;4853361;29;20600;-36
2021/08/06 06:36:01;;;;;;;2.15;1.70;;;17.30;91.40;;;17.36;69.27;96747.88;4855241;29;20049;-36
2021/08/06 06:38:29;;;;;;;3.30;1.50;;;17.30;90.90;;;17.41;69.37;96753.38;4854568;29;20259;-36
2021/08/06 06:40:57;;;;;;;2.28;1.77;;;17.40;91.00;;;17.41;69.45;96764.97;4852994;29;20405;-36
2021/08/06 06:43:30;;;;;;;2.97;1.67;;;17.40;91.40;;;17.40;69.47;96754.44;4854598;29;20244;-36
2021/08/06 06:45:59;;;;;;;2.45;1.33;;;17.30;91.60;;;17.39;69.74;96742.84;4854884;29;20065;-36
2021/08/06 06:48:27;;;;;;;1.90;1.25;;;17.30;92.10;;;17.42;69.56;96752.34;4854733;29;20057;-37
2021/08/06 06:50:57;;;;;;;3.20;1.65;;;17.40;91.80;;;17.52;69.53;96742.69;4854901;29;20367;-36
2021/08/06 06:53:27;;;;;;;2.55;1.42;;;17.50;91.80;;;17.63;69.64;96753.72;4854436;29;20049;-36
2021/08/06 06:55:55;;;;;;;1.65;1.55;;;17.70;92.00;;;17.73;69.45;96756.69;4856169;29;20067;-36
2021/08/06 06:58:23;;;;;;;1.63;1.45;;;17.90;90.80;;;17.85;69.67;96757.56;4853681;29;20069;-36
2021/08/06 07:00:52;;;;;;;1.85;1.30;;;18.00;90.60;;;17.96;69.57;96758.66;4853725;29;20062;-36
2021/08/06 07:03:20;;;;;;;2.30;1.25;;;18.10;90.30;;;17.99;69.25;96754.69;4855644;29;20064;-36
2021/08/06 07:05:48;;;;;;;1.50;1.15;;;18.30;89.30;;;18.10;68.96;96765.47;4855459;29;20057;-36
2021/08/06 07:08:17;;;;;;;1.90;1.08;;;18.30;89.00;;;18.16;68.78;96769.13;4855484;29;20049;-36
2021/08/06 07:10:45;;;;;;;2.30;1.27;;;18.40;88.30;;;18.22;68.55;96773.63;4853029;29;20065;-36
2021/08/06 07:13:13;;;;;;;2.13;1.40;;;18.50;88.10;;;18.25;68.30;96788.50;4853322;29;20069;-36
2021/08/06 07:15:42;;;;;;;1.85;1.10;;;18.50;87.80;;;18.28;68.24;96782.63;4853169;29;20251;-36
2021/08/06 07:18:13;;;;;;;1.55;1.40;;;18.50;87.60;;;18.24;68.27;96787.69;4854441;29;20061;-36
2021/08/06 07:20:42;;;;;;;1.85;1.50;;;18.40;88.00;;;18.25;68.37;96792.00;4855111;29;20061;-36
2021/08/06 07:23:10;;;;;;;1.38;1.25;;;18.30;88.50;;;18.21;68.65;96790.81;4851349;29;20053;-36
2021/08/06 07:25:38;;;;;;;1.75;1.50;;;18.30;89.10;;;18.22;68.63;96795.16;4856221;29;20067;-36
2021/08/06 07:28:09;;;;;;;2.15;1.52;;;18.20;89.50;;;18.20;68.69;96812.59;4853625;29;20061;-36
2021/08/06 07:30:38;;;;;;;3.75;1.70;;;18.20;89.80;;;18.05;69.71;96830.00;4854577;29;20073;-36
2021/08/06 07:33:08;;;;;;;1.52;1.40;;;18.00;91.50;;;17.96;70.22;96825.16;4853659;29;20049;-36
2021/08/06 07:35:36;;;;;;;1.50;1.30;;;17.80;93.70;;;17.90;69.95;96808.88;4852595;29;20371;-36
2021/08/06 07:38:04;;;;;;;1.67;1.10;;;17.70;93.00;;;17.87;70.01;96819.25;4854909;29;20053;-36
2021/08/06 07:40:33;;;;;;;2.38;1.20;;;17.70;93.10;;;17.83;70.00;96829.63;4852841;29;20077;-36
2021/08/06 07:43:02;;;;;;;2.30;1.30;;;17.70;92.40;;;17.87;69.92;96822.81;4855069;29;20057;-36
2021/08/06 07:45:30;;;;;;;1.48;1.00;;;17.70;93.60;;;17.92;70.05;96822.09;4854852;29;20076;-36
2021/08/06 07:48:00;;;;;;;2.00;1.30;;;17.90;92.70;;;18.04;70.06;96830.22;4853661;29;20061;-36
2021/08/06 07:50:29;;;;;;;1.63;1.20;;;18.00;92.50;;;18.08;69.92;96826.84;4851366;29;20402;-36
2021/08/06 07:52:57;;;;;;;2.92;2.10;;;18.10;92.00;;;18.14;70.00;96838.56;4854304;29;20064;-36
2021/08/06 07:55:26;;;;;;;2.03;1.52;;;18.10;92.30;;;18.17;70.15;96851.59;4851899;29;20053;-35
2021/08/06 07:57:55;;;;;;;2.42;2.03;;;18.10;92.60;;;18.18;70.11;96842.44;4852142;29;20505;-35
2021/08/06 08:00:23;;;;;;;4.20;1.73;;;18.20;92.20;;;18.21;70.16;96846.56;4869897;29;20282;-35
2021/08/06 08:02:52;;;;;;;3.88;2.70;;;18.20;92.20;;;18.20;70.16;96853.81;4878685;29;20058;-35
2021/08/06 08:05:26;;;;;;;3.20;2.00;;;18.20;91.70;;;18.20;70.03;96847.63;4880637;29;20063;-35
2021/08/06 08:08:04;;;;;;;2.00;1.38;;;18.20;91.80;;;18.22;70.00;96849.03;4878629;29;20044;-35
2021/08/06 08:10:35;;;;;;;2.13;1.40;;;18.30;91.30;;;18.18;69.43;96845.13;4894725;29;20060;-35
2021/08/06 08:13:14;;;;;;;1.60;1.20;;;18.20;90.50;;;18.03;69.15;96847.41;4877911;29;20449;-35
2021/08/06 08:15:46;;;;;;;2.15;1.33;;;18.10;89.30;;;18.01;68.88;96846.84;4879355;29;20050;-35
2021/08/06 08:18:14;;;;;;;2.75;1.38;;;18.10;89.50;;;18.04;68.74;96839.13;4883250;29;20250;-34
2021/08/06 08:20:44;;;;;;;2.08;1.00;;;18.10;89.20;;;18.12;68.10;96837.16;4891052;29;20057;-34
2021/08/06 08:23:12;;;;;;;1.75;1.42;;;18.10;88.50;;;18.16;68.39;96846.44;4888056;29;20236;-34
2021/08/06 08:25:40;;;;;;;2.35;1.13;;;18.20;87.20;;;18.03;67.68;96850.13;4888708;29;20063;-35
2021/08/06 08:28:08;;;;;;;3.10;1.23;;;18.10;86.20;;;18.01;67.90;96844.97;4890531;29;20053;-35
2021/08/06 08:30:38;;;;;;;1.65;1.13;;;18.10;87.40;;;18.01;68.25;96850.38;4888295;29;20052;-34
2021/08/06 08:33:09;;;;;;;2.60;1.70;;;18.10;87.90;;;18.21;67.97;96849.28;4890598;29;20063;-35
2021/08/06 08:35:37;;;;;;;2.72;1.13;;;18.30;88.10;;;18.34;68.13;96851.78;4889664;29;20056;-35
2021/08/06 08:38:05;;;;;;;1.38;1.02;;;18.50;88.10;;;18.30;67.94;96848.72;4887436;29;20068;-35
2021/08/06 08:40:33;;;;;;;1.70;1.23;;;18.50;87.10;;;18.38;67.39;96860.19;4889834;29;20079;-35
2021/08/06 08:43:01;;;;;;;1.63;0.98;;;18.50;87.00;;;18.36;66.96;96859.59;4889509;29;20404;-35
2021/08/06 08:45:29;;;;;;;1.42;1.20;;;18.50;86.20;;;18.37;66.81;96854.00;4874111;29;20363;-35
2021/08/06 08:47:58;;;;;;;3.15;1.02;;;18.50;85.60;;;18.23;66.04;96866.84;4888548;29;20048;-35
2021/08/06 08:50:27;;;;;;;1.90;1.70;;;18.40;83.50;;;18.33;66.62;96855.50;4888906;29;20385;-35
2021/08/06 08:52:55;;;;;;;1.85;1.70;;;18.40;85.50;;;18.27;65.89;96859.94;4888502;29;20231;-35
2021/08/06 08:55:23;;;;;;;1.55;1.10;;;18.40;84.60;;;18.34;66.21;96864.41;4888089;29;20066;-35
2021/08/06 08:57:51;;;;;;;1.85;1.25;;;18.40;84.60;;;18.40;65.84;96858.94;4889481;29;20258;-35
2021/08/06 09:00:19;;;;;;;1.98;0.80;;;18.50;83.70;;;18.47;65.65;96859.63;4887405;29;20056;-35
2021/08/06 09:02:49;;;;;;;1.48;1.10;;;18.70;83.70;;;18.49;65.94;96859.41;4888614;29;20067;-37
2021/08/06 09:05:24;;;;;;;1.38;1.10;;;18.70;84.10;;;18.58;65.77;96870.69;4889118;29;20052;-35
2021/08/06 09:07:57;;;;;;;0.77;0.77;;;18.80;83.40;;;18.66;65.53;96862.25;4889068;29;20428;-35
2021/08/06 09:10:32;;;;;;;2.78;1.25;;;18.90;82.70;;;18.56;65.03;96856.63;4888470;29;20056;-35
2021/08/06 09:13:11;;;;;;;1.33;1.23;;;18.90;81.60;;;18.68;64.88;96852.88;4893853;29;20048;-35
2021/08/06 09:15:59;;;;;;;1.25;1.00;;;19.00;81.50;;;18.62;64.33;96861.09;4889526;29;20052;-35
2021/08/06 09:18:39;;;;;;;2.85;0.90;;;19.00;79.70;;;18.70;64.03;96852.66;4889056;29;20247;-35
2021/08/06 09:21:16;;;;;;;1.42;1.10;;;19.00;79.80;;;18.65;62.76;96856.06;4889709;29;20071;-35
2021/08/06 09:23:59;;;;;;;1.67;1.20;;;19.10;77.50;;;18.83;63.03;96855.16;4889193;29;20374;-35
2021/08/06 09:26:44;;;;;;;4.25;1.15;;;19.20;78.10;;;18.97;62.62;96863.03;4889418;29;20056;-35
2021/08/06 09:29:21;;;;;;;1.90;1.00;;;19.40;78.80;;;18.91;60.18;96853.19;4890718;29;20040;-35
2021/08/06 09:32:00;;;;;;;1.00;0.90;;;19.30;74.00;;;18.94;60.30;96855.41;4890239;29;20060;-35
2021/08/06 09:34:35;;;;;;;2.28;1.20;;;19.30;74.00;;;19.06;60.77;96867.03;4889647;29;20045;-35
2021/08/06 09:37:16;;;;;;;1.27;1.08;;;19.50;76.00;;;19.23;61.42;96861.72;4889573;29;20059;-35
2021/08/06 09:39:55;;;;;;;1.88;1.25;;;19.70;76.30;;;19.35;60.72;96859.88;4889748;29;20065;-35
2021/08/06 09:42:34;;;;;;;1.38;1.15;;;19.90;74.60;;;19.50;59.73;96856.66;4889416;29;20049;-35
2021/08/06 09:45:13;;;;;;;1.20;1.10;;;20.00;72.90;;;19.55;59.20;96850.56;4890535;29;20629;-35
2021/08/06 09:47:44;;;;;;;1.73;1.00;;;20.00;72.80;;;19.53;57.52;96847.28;4888178;29;20674;-35
2021/08/06 09:50:16;;;;;;;1.90;1.20;;;19.90;71.30;;;19.44;57.48;96863.00;4889876;29;20331;-35
2021/08/06 09:52:52;;;;;;;1.70;1.13;;;19.90;70.50;;;19.56;58.01;96861.13;4890629;29;20052;-35
2021/08/06 09:55:27;;;;;;;3.00;1.38;;;20.00;70.50;;;19.66;57.12;96863.22;4890224;29;20048;-35
2021/08/06 09:57:56;;;;;;;2.00;1.10;;;20.20;69.80;;;19.84;58.62;96863.06;4888961;29;20052;-34
2021/08/06 10:00:26;;;;;;;1.70;1.25;;;20.40;72.20;;;19.86;57.16;96869.06;4890265;29;20058;-35
2021/08/06 10:02:56;;;;;;;2.05;1.10;;;20.50;68.80;;;20.05;56.60;96866.19;4889141;29;20056;-35
2021/08/06 10:05:28;;;;;;;1.35;1.20;;;20.60;69.10;;;20.17;56.58;96879.66;4888927;29;20149;-35
2021/08/06 10:07:58;;;;;;;1.67;1.30;;;20.80;69.20;;;20.16;53.88;96873.44;4889425;29;20063;-36
2021/08/06 10:10:35;;;;;;;1.58;1.20;;;20.70;67.20;;;20.02;53.70;96877.47;4888335;29;20048;-36
2021/08/06 10:13:05;;;;;;;3.80;0.95;;;20.50;65.70;;;20.09;55.15;96874.66;4888643;29;20053;-35
2021/08/06 10:15:35;;;;;;;2.17;1.20;;;20.40;68.00;;;19.97;55.19;96870.09;4885867;29;20056;-35
2021/08/06 10:18:03;;;;;;;2.97;1.40;;;20.30;68.00;;;19.89;55.33;96872.34;4889716;29;20066;-35
2021/08/06 10:20:33;;;;;;;2.00;1.17;;;20.20;67.80;;;19.97;55.86;96870.09;4890300;29;20060;-35
2021/08/06 10:23:01;;;;;;;1.55;1.27;;;20.20;69.20;;;19.91;55.19;96876.47;4888920;29;20060;-36
2021/08/06 10:25:31;;;;;;;1.60;1.20;;;20.20;67.50;;;19.92;55.13;96885.38;4890559;29;20048;-36
2021/08/06 10:28:03;;;;;;;2.83;1.13;;;20.20;68.40;;;19.99;55.28;96883.38;4889522;29;20059;-35
2021/08/06 10:30:38;;;;;;;1.77;1.27;;;20.30;68.90;;;20.02;55.54;96882.88;4890254;29;20044;-36
2021/08/06 10:33:20;;;;;;;1.95;1.15;;;20.30;68.40;;;19.87;55.86;96888.78;4888956;29;20063;-36
2021/08/06 10:35:50;;;;;;;2.17;1.10;;;20.10;68.70;;;19.67;56.18;96881.88;4889306;29;20057;-35